EBFN

Koksijde Air Base Airport

Koksijde, Belgium
TAF EBFN 200841Z 2010/2019 07006KT 9999 FEW200 TEMPO 2014/2018 04005KT
Issued Valid From Valid To
Jan-20 @ 08:41 UTC
(2 hours ago)
Jan-20 @ 10:00 UTC
(60 minutes ago)
Jan-20 @ 19:00 UTC
(in 8 hours)
Jan-20 @ 10:00 to Jan-20 @ 19:00
TAF EBFN 200841Z 2010/2019 07006KT 9999 FEW200
Wind Visibility Clouds
70° at 6 knots 10,000+ meters
  • Few at 20,000' AGL
Temporary Jan-20 @ 14:00 to Jan-20 @ 18:00
TEMPO 2014/2018 04005KT
Wind
40° at 5 knots
TAF EBFN 200841Z 2010/2019 07006KT 9999 FEW200 TEMPO 2014/2018 04005KT
Issued Jan-20 @ 08:41 UTC
(2 hours ago)
Valid From Jan-20 @ 10:00 UTC
(60 minutes ago)
Valid To Jan-20 @ 19:00 UTC
(in 8 hours)
Jan-20 @ 10:00 - Jan-20 @ 19:00
Wind Visibility
70° at 6 knots 10,000+ meters
Clouds
  • Few at 20,000' AGL
Temporary Jan-20 @ 14:00 - Jan-20 @ 18:00
Wind
40° at 5 knots